createdAt,value
2018-12-24T00:02:50.994Z,3.40
2018-12-24T00:12:56.262Z,2.73
2018-12-24T00:23:01.481Z,3.10
2018-12-24T00:33:06.867Z,4.27
2018-12-24T00:43:12.105Z,4.90
2018-12-24T00:53:17.407Z,4.83
2018-12-24T01:03:22.896Z,5.23
2018-12-24T01:13:28.398Z,7.47
2018-12-24T01:23:33.619Z,9.97
2018-12-24T01:33:38.936Z,11.13
2018-12-24T01:43:44.218Z,7.97
2018-12-24T01:53:49.589Z,7.17
2018-12-24T02:03:54.898Z,10.40
2018-12-24T02:14:00.195Z,10.83
2018-12-24T02:24:05.482Z,7.30
2018-12-24T02:34:10.887Z,8.27
2018-12-24T02:44:16.232Z,10.17
2018-12-24T02:54:21.504Z,10.30
2018-12-24T03:04:26.754Z,8.87
2018-12-24T03:14:32.034Z,8.77
2018-12-24T03:24:37.328Z,6.80
2018-12-24T03:34:42.974Z,7.43
2018-12-24T03:44:48.283Z,7.80
2018-12-24T03:54:53.552Z,8.00
2018-12-24T04:04:58.816Z,7.53
2018-12-24T04:15:04.133Z,6.20
2018-12-24T04:25:09.426Z,5.50
2018-12-24T04:35:14.651Z,4.97
2018-12-24T04:45:20.935Z,4.20
2018-12-24T04:55:26.149Z,5.60
2018-12-24T05:05:31.375Z,5.73
2018-12-24T05:15:36.669Z,6.20
2018-12-24T05:25:41.917Z,5.50
2018-12-24T05:35:47.192Z,6.57
2018-12-24T05:45:52.589Z,6.13
2018-12-24T05:55:57.926Z,6.60
2018-12-24T06:06:03.222Z,6.37
2018-12-24T06:16:08.546Z,7.47
2018-12-24T06:26:13.829Z,8.27
2018-12-24T06:36:19.618Z,8.07
2018-12-24T06:46:24.935Z,8.53
2018-12-24T06:56:30.264Z,8.43
2018-12-24T07:06:35.472Z,8.03
2018-12-24T07:16:40.843Z,7.87
2018-12-24T07:26:46.028Z,8.23
2018-12-24T07:36:51.445Z,8.70
2018-12-24T07:46:56.776Z,8.00
2018-12-24T07:57:02.083Z,7.07
2018-12-24T08:07:07.465Z,6.43
2018-12-24T08:17:12.843Z,5.90
2018-12-24T08:27:18.207Z,3.80
2018-12-24T08:37:23.565Z,3.00
2018-12-24T08:47:28.884Z,3.07
2018-12-24T08:57:34.127Z,3.77
2018-12-24T09:07:39.282Z,2.67
2018-12-24T09:17:44.503Z,3.70
2018-12-24T09:27:49.790Z,2.93
2018-12-24T09:37:55.082Z,3.40
2018-12-24T09:48:00.391Z,3.17
2018-12-24T09:58:05.751Z,2.93
2018-12-24T10:08:15.121Z,2.70
2018-12-24T10:18:20.407Z,3.00
2018-12-24T10:28:25.747Z,3.00
2018-12-24T10:38:31.055Z,3.80
2018-12-24T10:48:36.508Z,4.37
2018-12-24T10:58:41.969Z,5.13
2018-12-24T11:08:47.294Z,5.40
2018-12-24T11:18:52.673Z,6.70
2018-12-24T11:28:58.008Z,5.10
2018-12-24T11:39:03.892Z,4.50
2018-12-24T11:49:09.225Z,3.87
2018-12-24T11:59:14.682Z,3.90
2018-12-24T12:09:20.175Z,2.80
2018-12-24T12:19:25.500Z,3.10
2018-12-24T12:29:30.829Z,3.30
2018-12-24T12:39:36.148Z,4.63
2018-12-24T12:49:41.474Z,5.23
2018-12-24T12:59:46.856Z,5.27
2018-12-24T13:09:52.221Z,3.03
2018-12-24T13:19:57.532Z,3.20
2018-12-24T13:30:03.038Z,3.47
2018-12-24T13:40:08.393Z,3.60
2018-12-24T13:50:13.713Z,3.63
2018-12-24T14:00:18.958Z,3.63
2018-12-24T14:10:24.331Z,4.00
2018-12-24T14:20:29.659Z,3.50
2018-12-24T14:30:35.170Z,3.53
2018-12-24T14:40:40.503Z,3.97
2018-12-24T14:50:47.320Z,4.80
2018-12-24T15:00:52.912Z,3.97
2018-12-24T15:10:58.206Z,5.03
2018-12-24T15:21:03.638Z,5.43
2018-12-24T15:31:08.920Z,5.30
2018-12-24T15:41:14.281Z,6.63
2018-12-24T15:51:19.673Z,7.07
2018-12-24T16:01:25.021Z,6.93
2018-12-24T16:11:30.439Z,7.30
2018-12-24T16:21:35.993Z,7.30
2018-12-24T16:31:41.475Z,7.90
2018-12-24T16:41:46.957Z,8.23
2018-12-24T16:51:52.326Z,7.87
2018-12-24T17:01:57.857Z,7.90
2018-12-24T17:12:03.260Z,7.70
2018-12-24T17:22:08.605Z,7.63
2018-12-24T17:32:13.949Z,7.17
2018-12-24T17:42:19.301Z,6.43
2018-12-24T17:52:24.684Z,5.57
2018-12-24T18:02:30.064Z,5.63
2018-12-24T18:12:35.523Z,5.43
2018-12-24T18:22:40.802Z,5.20
2018-12-24T18:32:47.276Z,5.40
2018-12-24T18:42:52.723Z,4.80
2018-12-24T18:52:58.081Z,4.37
2018-12-24T19:03:03.523Z,4.73
2018-12-24T19:13:09.801Z,4.60
2018-12-24T19:23:15.099Z,4.50
2018-12-24T19:33:21.396Z,4.23
2018-12-24T19:43:26.666Z,3.87
2018-12-24T19:53:31.977Z,3.90
2018-12-24T20:03:37.329Z,4.00
2018-12-24T20:13:42.729Z,4.50
2018-12-24T20:23:47.996Z,4.20
2018-12-24T20:33:53.292Z,4.50
2018-12-24T20:43:59.725Z,4.47
2018-12-24T20:54:05.470Z,3.83
2018-12-24T21:04:10.771Z,4.10
2018-12-24T21:14:16.169Z,3.90
2018-12-24T21:24:21.532Z,3.97
2018-12-24T21:34:27.861Z,4.27
2018-12-24T21:44:33.236Z,4.03
2018-12-24T21:54:38.569Z,3.80
2018-12-24T22:04:43.971Z,4.20
2018-12-24T22:14:49.291Z,4.03
2018-12-24T22:24:54.613Z,4.10
2018-12-24T22:35:00.264Z,4.17
2018-12-24T22:45:05.628Z,4.07
2018-12-24T22:55:10.997Z,3.67
2018-12-24T23:05:16.299Z,4.23
2018-12-24T23:15:21.527Z,3.23
2018-12-24T23:25:26.816Z,3.70
2018-12-24T23:35:32.152Z,3.63
2018-12-24T23:45:37.440Z,3.70
2018-12-24T23:55:42.755Z,3.23
